sensor_id;sensor_type;location;lat;lon;timestamp;temperature;humidity
14934;DHT22;7560;51.364;12.384;2022-11-25T00:03:40;8.30;99.90
14934;DHT22;7560;51.364;12.384;2022-11-25T00:08:44;8.30;99.90
14934;DHT22;7560;51.364;12.384;2022-11-25T00:13:47;8.20;99.90
14934;DHT22;7560;51.364;12.384;2022-11-25T00:18:51;8.00;99.90
14934;DHT22;7560;51.364;12.384;2022-11-25T00:24:02;7.80;99.90
14934;DHT22;7560;51.364;12.384;2022-11-25T00:29:08;7.70;99.90
14934;DHT22;7560;51.364;12.384;2022-11-25T00:34:12;7.60;99.90
14934;DHT22;7560;51.364;12.384;2022-11-25T00:39:16;7.40;99.90
14934;DHT22;7560;51.364;12.384;2022-11-25T00:44:20;7.20;99.90
14934;DHT22;7560;51.364;12.384;2022-11-25T00:49:39;7.00;99.90
14934;DHT22;7560;51.364;12.384;2022-11-25T00:54:42;6.90;99.90
14934;DHT22;7560;51.364;12.384;2022-11-25T00:59:45;6.80;99.90
14934;DHT22;7560;51.364;12.384;2022-11-25T01:04:47;6.70;99.90
14934;DHT22;7560;51.364;12.384;2022-11-25T01:09:48;6.60;99.90
14934;DHT22;7560;51.364;12.384;2022-11-25T01:14:51;6.60;99.90
14934;DHT22;7560;51.364;12.384;2022-11-25T01:19:52;6.40;99.90
14934;DHT22;7560;51.364;12.384;2022-11-25T01:24:54;6.30;99.90
14934;DHT22;7560;51.364;12.384;2022-11-25T01:29:56;6.20;99.90
14934;DHT22;7560;51.364;12.384;2022-11-25T01:34:58;6.00;99.90
14934;DHT22;7560;51.364;12.384;2022-11-25T01:39:59;6.00;99.90
14934;DHT22;7560;51.364;12.384;2022-11-25T01:45:27;5.80;99.90
14934;DHT22;7560;51.364;12.384;2022-11-25T01:50:31;5.80;99.90
14934;DHT22;7560;51.364;12.384;2022-11-25T01:55:35;5.60;99.90
14934;DHT22;7560;51.364;12.384;2022-11-25T02:00:39;5.50;99.90
14934;DHT22;7560;51.364;12.384;2022-11-25T02:05:54;5.40;99.90
14934;DHT22;7560;51.364;12.384;2022-11-25T02:11:00;5.40;99.90
14934;DHT22;7560;51.364;12.384;2022-11-25T02:16:02;5.30;99.90
14934;DHT22;7560;51.364;12.384;2022-11-25T02:21:04;5.30;99.90
14934;DHT22;7560;51.364;12.384;2022-11-25T02:26:06;5.20;99.90
14934;DHT22;7560;51.364;12.384;2022-11-25T02:31:08;5.10;99.90
14934;DHT22;7560;51.364;12.384;2022-11-25T02:36:16;5.10;99.90
14934;DHT22;7560;51.364;12.384;2022-11-25T02:41:27;5.00;99.90
14934;DHT22;7560;51.364;12.384;2022-11-25T02:46:30;5.00;99.90
14934;DHT22;7560;51.364;12.384;2022-11-25T02:51:32;5.10;99.90
14934;DHT22;7560;51.364;12.384;2022-11-25T02:56:34;5.10;99.90
14934;DHT22;7560;51.364;12.384;2022-11-25T03:01:36;5.00;99.90
14934;DHT22;7560;51.364;12.384;2022-11-25T03:06:39;5.10;99.90
14934;DHT22;7560;51.364;12.384;2022-11-25T03:11:41;5.10;99.90
14934;DHT22;7560;51.364;12.384;2022-11-25T03:17:01;5.00;99.90
14934;DHT22;7560;51.364;12.384;2022-11-25T03:22:03;4.80;99.90
14934;DHT22;7560;51.364;12.384;2022-11-25T03:27:05;4.80;99.90
14934;DHT22;7560;51.364;12.384;2022-11-25T03:32:06;4.80;99.90
14934;DHT22;7560;51.364;12.384;2022-11-25T03:37:10;4.70;99.90
14934;DHT22;7560;51.364;12.384;2022-11-25T03:42:12;4.70;99.90
14934;DHT22;7560;51.364;12.384;2022-11-25T03:47:14;4.70;99.90
14934;DHT22;7560;51.364;12.384;2022-11-25T03:52:16;4.70;99.90
14934;DHT22;7560;51.364;12.384;2022-11-25T03:57:17;4.60;99.90
14934;DHT22;7560;51.364;12.384;2022-11-25T04:02:19;4.60;99.90
14934;DHT22;7560;51.364;12.384;2022-11-25T04:07:21;4.60;99.90
14934;DHT22;7560;51.364;12.384;2022-11-25T04:12:23;4.50;99.90
14934;DHT22;7560;51.364;12.384;2022-11-25T04:17:43;4.50;99.90
14934;DHT22;7560;51.364;12.384;2022-11-25T04:22:44;4.50;99.90
14934;DHT22;7560;51.364;12.384;2022-11-25T04:27:46;4.50;99.90
14934;DHT22;7560;51.364;12.384;2022-11-25T04:32:48;4.60;99.90
14934;DHT22;7560;51.364;12.384;2022-11-25T04:37:50;4.60;99.90
14934;DHT22;7560;51.364;12.384;2022-11-25T04:42:51;4.50;99.90
14934;DHT22;7560;51.364;12.384;2022-11-25T04:48:02;4.50;99.90
14934;DHT22;7560;51.364;12.384;2022-11-25T04:53:03;4.50;99.90
14934;DHT22;7560;51.364;12.384;2022-11-25T04:58:05;4.40;99.90
14934;DHT22;7560;51.364;12.384;2022-11-25T05:03:07;4.40;99.90
14934;DHT22;7560;51.364;12.384;2022-11-25T05:08:09;4.40;99.90
14934;DHT22;7560;51.364;12.384;2022-11-25T05:13:10;4.40;99.90
14934;DHT22;7560;51.364;12.384;2022-11-25T05:18:12;4.40;99.90
14934;DHT22;7560;51.364;12.384;2022-11-25T05:23:14;4.40;99.90
14934;DHT22;7560;51.364;12.384;2022-11-25T05:28:15;4.40;99.90
14934;DHT22;7560;51.364;12.384;2022-11-25T05:33:17;4.40;99.90
14934;DHT22;7560;51.364;12.384;2022-11-25T05:38:19;4.40;99.90
14934;DHT22;7560;51.364;12.384;2022-11-25T05:43:20;4.40;99.90
14934;DHT22;7560;51.364;12.384;2022-11-25T05:48:22;4.40;99.90
14934;DHT22;7560;51.364;12.384;2022-11-25T05:53:24;4.30;99.90
14934;DHT22;7560;51.364;12.384;2022-11-25T05:58:27;4.30;99.90
14934;DHT22;7560;51.364;12.384;2022-11-25T06:03:29;4.40;99.90
14934;DHT22;7560;51.364;12.384;2022-11-25T06:08:31;4.40;99.90
14934;DHT22;7560;51.364;12.384;2022-11-25T06:13:34;4.40;99.90
14934;DHT22;7560;51.364;12.384;2022-11-25T06:18:36;4.40;99.90
14934;DHT22;7560;51.364;12.384;2022-11-25T06:23:38;4.40;99.90
14934;DHT22;7560;51.364;12.384;2022-11-25T06:28:40;4.40;99.90
14934;DHT22;7560;51.364;12.384;2022-11-25T06:33:44;4.40;99.90
14934;DHT22;7560;51.364;12.384;2022-11-25T06:38:49;4.40;99.90
14934;DHT22;7560;51.364;12.384;2022-11-25T06:43:51;4.40;99.90
14934;DHT22;7560;51.364;12.384;2022-11-25T06:48:53;4.30;99.90
14934;DHT22;7560;51.364;12.384;2022-11-25T06:53:54;4.40;99.90
14934;DHT22;7560;51.364;12.384;2022-11-25T06:58:56;4.40;99.90
14934;DHT22;7560;51.364;12.384;2022-11-25T07:04:00;4.40;99.90
14934;DHT22;7560;51.364;12.384;2022-11-25T07:09:04;4.40;99.90
14934;DHT22;7560;51.364;12.384;2022-11-25T07:14:09;4.50;99.90
14934;DHT22;7560;51.364;12.384;2022-11-25T07:19:14;4.60;99.90
14934;DHT22;7560;51.364;12.384;2022-11-25T07:24:16;4.70;99.90
14934;DHT22;7560;51.364;12.384;2022-11-25T07:29:18;4.90;99.90
14934;DHT22;7560;51.364;12.384;2022-11-25T07:34:41;5.00;99.90
14934;DHT22;7560;51.364;12.384;2022-11-25T07:39:42;5.10;99.90
14934;DHT22;7560;51.364;12.384;2022-11-25T07:44:44;5.20;99.90
14934;DHT22;7560;51.364;12.384;2022-11-25T07:49:46;5.30;99.90
14934;DHT22;7560;51.364;12.384;2022-11-25T07:54:47;5.40;99.90
14934;DHT22;7560;51.364;12.384;2022-11-25T07:59:49;5.50;99.90
14934;DHT22;7560;51.364;12.384;2022-11-25T08:04:51;5.60;99.90
14934;DHT22;7560;51.364;12.384;2022-11-25T08:09:52;5.70;99.90
14934;DHT22;7560;51.364;12.384;2022-11-25T08:14:54;5.70;99.90
14934;DHT22;7560;51.364;12.384;2022-11-25T08:20:00;5.70;99.90
14934;DHT22;7560;51.364;12.384;2022-11-25T08:25:01;5.70;99.90
14934;DHT22;7560;51.364;12.384;2022-11-25T08:30:04;5.70;99.90
14934;DHT22;7560;51.364;12.384;2022-11-25T08:35:06;5.80;99.90
14934;DHT22;7560;51.364;12.384;2022-11-25T08:40:09;5.80;99.90
14934;DHT22;7560;51.364;12.384;2022-11-25T08:45:11;5.80;99.90
14934;DHT22;7560;51.364;12.384;2022-11-25T08:50:14;5.90;99.90
14934;DHT22;7560;51.364;12.384;2022-11-25T08:55:16;6.00;99.90
14934;DHT22;7560;51.364;12.384;2022-11-25T09:00:18;6.10;99.90
14934;DHT22;7560;51.364;12.384;2022-11-25T09:05:20;6.20;99.90
14934;DHT22;7560;51.364;12.384;2022-11-25T09:10:21;6.40;99.90
14934;DHT22;7560;51.364;12.384;2022-11-25T09:15:23;6.70;99.90
14934;DHT22;7560;51.364;12.384;2022-11-25T09:20:26;6.90;99.90
14934;DHT22;7560;51.364;12.384;2022-11-25T09:25:28;7.10;99.90
14934;DHT22;7560;51.364;12.384;2022-11-25T09:30:31;7.40;99.90
14934;DHT22;7560;51.364;12.384;2022-11-25T09:35:32;7.60;99.90
14934;DHT22;7560;51.364;12.384;2022-11-25T09:46:00;7.80;99.90
14934;DHT22;7560;51.364;12.384;2022-11-25T09:52:09;7.90;99.90
14934;DHT22;7560;51.364;12.384;2022-11-25T10:08:22;8.30;99.90
14934;DHT22;7560;51.364;12.384;2022-11-25T10:13:28;8.40;99.90
14934;DHT22;7560;51.364;12.384;2022-11-25T10:18:44;8.40;99.90
14934;DHT22;7560;51.364;12.384;2022-11-25T10:23:48;8.40;99.90
14934;DHT22;7560;51.364;12.384;2022-11-25T10:29:01;8.50;99.90
14934;DHT22;7560;51.364;12.384;2022-11-25T10:39:33;8.70;99.90
14934;DHT22;7560;51.364;12.384;2022-11-25T10:44:40;9.00;99.90
14934;DHT22;7560;51.364;12.384;2022-11-25T10:55:12;9.30;99.90
14934;DHT22;7560;51.364;12.384;2022-11-25T11:00:35;9.30;99.90
14934;DHT22;7560;51.364;12.384;2022-11-25T11:05:44;9.30;99.90
14934;DHT22;7560;51.364;12.384;2022-11-25T11:11:14;9.50;99.90
14934;DHT22;7560;51.364;12.384;2022-11-25T11:21:37;9.70;99.90
14934;DHT22;7560;51.364;12.384;2022-11-25T11:26:42;9.80;99.90
14934;DHT22;7560;51.364;12.384;2022-11-25T11:32:04;9.90;99.90
14934;DHT22;7560;51.364;12.384;2022-11-25T11:37:18;10.00;99.90
14934;DHT22;7560;51.364;12.384;2022-11-25T11:42:48;10.00;99.90
14934;DHT22;7560;51.364;12.384;2022-11-25T12:04:21;10.30;99.90
14934;DHT22;7560;51.364;12.384;2022-11-25T12:09:27;10.30;99.90
14934;DHT22;7560;51.364;12.384;2022-11-25T12:14:50;10.30;99.90
14934;DHT22;7560;51.364;12.384;2022-11-25T12:20:21;10.30;99.90
14934;DHT22;7560;51.364;12.384;2022-11-25T12:25:37;10.30;99.90
14934;DHT22;7560;51.364;12.384;2022-11-25T12:36:41;10.40;99.90
14934;DHT22;7560;51.364;12.384;2022-11-25T12:42:11;10.50;99.90
14934;DHT22;7560;51.364;12.384;2022-11-25T12:47:10;10.50;99.90
14934;DHT22;7560;51.364;12.384;2022-11-25T13:18:38;10.50;99.90
14934;DHT22;7560;51.364;12.384;2022-11-25T13:28:52;10.50;99.90
14934;DHT22;7560;51.364;12.384;2022-11-25T13:34:02;10.50;99.90
14934;DHT22;7560;51.364;12.384;2022-11-25T13:39:13;10.60;99.90
14934;DHT22;7560;51.364;12.384;2022-11-25T13:44:29;10.60;99.90
14934;DHT22;7560;51.364;12.384;2022-11-25T13:49:43;10.60;99.90
14934;DHT22;7560;51.364;12.384;2022-11-25T13:54:52;10.60;99.90
14934;DHT22;7560;51.364;12.384;2022-11-25T14:00:00;10.50;99.90
14934;DHT22;7560;51.364;12.384;2022-11-25T14:10:41;10.40;99.90
14934;DHT22;7560;51.364;12.384;2022-11-25T14:26:58;10.20;99.90
14934;DHT22;7560;51.364;12.384;2022-11-25T14:42:21;10.10;99.90
14934;DHT22;7560;51.364;12.384;2022-11-25T14:47:30;10.00;99.90
14934;DHT22;7560;51.364;12.384;2022-11-25T14:52:39;10.00;99.90
14934;DHT22;7560;51.364;12.384;2022-11-25T14:57:44;9.90;99.90
14934;DHT22;7560;51.364;12.384;2022-11-25T15:03:01;9.80;99.90
14934;DHT22;7560;51.364;12.384;2022-11-25T15:08:15;9.70;99.90
14934;DHT22;7560;51.364;12.384;2022-11-25T15:13:40;9.70;99.90
14934;DHT22;7560;51.364;12.384;2022-11-25T15:23:55;9.60;99.90
14934;DHT22;7560;51.364;12.384;2022-11-25T15:29:05;9.50;99.90
14934;DHT22;7560;51.364;12.384;2022-11-25T15:34:12;9.50;99.90
14934;DHT22;7560;51.364;12.384;2022-11-25T15:44:26;9.40;99.90
14934;DHT22;7560;51.364;12.384;2022-11-25T15:49:29;9.40;99.90
14934;DHT22;7560;51.364;12.384;2022-11-25T15:54:38;9.40;99.90
14934;DHT22;7560;51.364;12.384;2022-11-25T15:59:47;9.40;99.90
14934;DHT22;7560;51.364;12.384;2022-11-25T16:04:49;9.30;99.90
14934;DHT22;7560;51.364;12.384;2022-11-25T16:09:51;9.30;99.90
14934;DHT22;7560;51.364;12.384;2022-11-25T16:14:53;9.20;99.90
14934;DHT22;7560;51.364;12.384;2022-11-25T16:19:54;9.20;99.90
14934;DHT22;7560;51.364;12.384;2022-11-25T16:24:56;9.20;99.90
14934;DHT22;7560;51.364;12.384;2022-11-25T16:35:16;9.10;99.90
14934;DHT22;7560;51.364;12.384;2022-11-25T16:40:19;9.10;99.90
14934;DHT22;7560;51.364;12.384;2022-11-25T16:45:24;9.10;99.90
14934;DHT22;7560;51.364;12.384;2022-11-25T16:50:27;9.10;99.90
14934;DHT22;7560;51.364;12.384;2022-11-25T16:55:29;9.10;99.90
14934;DHT22;7560;51.364;12.384;2022-11-25T17:00:31;9.10;99.90
14934;DHT22;7560;51.364;12.384;2022-11-25T17:05:33;9.10;99.90
14934;DHT22;7560;51.364;12.384;2022-11-25T17:10:35;9.10;99.90
14934;DHT22;7560;51.364;12.384;2022-11-25T17:15:37;9.00;99.90
14934;DHT22;7560;51.364;12.384;2022-11-25T17:20:39;8.90;99.90
14934;DHT22;7560;51.364;12.384;2022-11-25T17:25:45;8.90;99.90
14934;DHT22;7560;51.364;12.384;2022-11-25T17:30:48;8.90;99.90
14934;DHT22;7560;51.364;12.384;2022-11-25T17:35:50;8.90;99.90
14934;DHT22;7560;51.364;12.384;2022-11-25T17:40:51;8.90;99.90
14934;DHT22;7560;51.364;12.384;2022-11-25T17:45:53;8.90;99.90
14934;DHT22;7560;51.364;12.384;2022-11-25T17:50:55;8.90;99.90
14934;DHT22;7560;51.364;12.384;2022-11-25T17:55:57;8.80;99.90
14934;DHT22;7560;51.364;12.384;2022-11-25T18:00:58;8.80;99.90
14934;DHT22;7560;51.364;12.384;2022-11-25T18:06:00;8.80;99.90
14934;DHT22;7560;51.364;12.384;2022-11-25T18:11:05;8.80;99.90
14934;DHT22;7560;51.364;12.384;2022-11-25T18:16:08;8.80;99.90
14934;DHT22;7560;51.364;12.384;2022-11-25T18:21:11;8.80;99.90
14934;DHT22;7560;51.364;12.384;2022-11-25T18:26:13;8.80;99.90
14934;DHT22;7560;51.364;12.384;2022-11-25T18:31:15;8.80;99.90
14934;DHT22;7560;51.364;12.384;2022-11-25T18:36:17;8.80;99.90
14934;DHT22;7560;51.364;12.384;2022-11-25T18:41:20;8.80;99.90
14934;DHT22;7560;51.364;12.384;2022-11-25T18:46:22;8.80;99.90
14934;DHT22;7560;51.364;12.384;2022-11-25T18:51:24;8.80;99.90
14934;DHT22;7560;51.364;12.384;2022-11-25T18:56:25;8.80;99.90
14934;DHT22;7560;51.364;12.384;2022-11-25T19:01:27;8.80;99.90
14934;DHT22;7560;51.364;12.384;2022-11-25T19:06:29;8.80;99.90
14934;DHT22;7560;51.364;12.384;2022-11-25T19:11:34;8.80;99.90
14934;DHT22;7560;51.364;12.384;2022-11-25T19:16:37;8.80;99.90
14934;DHT22;7560;51.364;12.384;2022-11-25T19:21:39;8.80;99.90
14934;DHT22;7560;51.364;12.384;2022-11-25T19:26:44;8.80;99.90
14934;DHT22;7560;51.364;12.384;2022-11-25T19:31:47;8.80;99.90
14934;DHT22;7560;51.364;12.384;2022-11-25T19:36:50;8.80;99.90
14934;DHT22;7560;51.364;12.384;2022-11-25T19:41:52;8.80;99.90
14934;DHT22;7560;51.364;12.384;2022-11-25T19:46:56;8.80;99.90
14934;DHT22;7560;51.364;12.384;2022-11-25T19:52:32;8.80;99.90
14934;DHT22;7560;51.364;12.384;2022-11-25T19:57:36;8.70;99.90
14934;DHT22;7560;51.364;12.384;2022-11-25T20:02:38;8.70;99.90
14934;DHT22;7560;51.364;12.384;2022-11-25T20:07:41;8.70;99.90
14934;DHT22;7560;51.364;12.384;2022-11-25T20:12:44;8.70;99.90
14934;DHT22;7560;51.364;12.384;2022-11-25T20:17:49;8.70;99.90
14934;DHT22;7560;51.364;12.384;2022-11-25T20:23:03;8.70;99.90
14934;DHT22;7560;51.364;12.384;2022-11-25T20:28:17;8.70;99.90
14934;DHT22;7560;51.364;12.384;2022-11-25T20:33:19;8.70;99.90
14934;DHT22;7560;51.364;12.384;2022-11-25T20:38:27;8.70;99.90
14934;DHT22;7560;51.364;12.384;2022-11-25T20:43:35;8.60;99.90
14934;DHT22;7560;51.364;12.384;2022-11-25T20:48:39;8.60;99.90
14934;DHT22;7560;51.364;12.384;2022-11-25T20:53:44;8.50;99.90
14934;DHT22;7560;51.364;12.384;2022-11-25T20:58:47;8.50;99.90
14934;DHT22;7560;51.364;12.384;2022-11-25T21:03:49;8.50;99.90
14934;DHT22;7560;51.364;12.384;2022-11-25T21:08:52;8.50;99.90
14934;DHT22;7560;51.364;12.384;2022-11-25T21:13:54;8.40;99.90
14934;DHT22;7560;51.364;12.384;2022-11-25T21:18:56;8.40;99.90
14934;DHT22;7560;51.364;12.384;2022-11-25T21:24:05;8.40;99.90
14934;DHT22;7560;51.364;12.384;2022-11-25T21:29:12;8.20;99.90
14934;DHT22;7560;51.364;12.384;2022-11-25T21:34:15;8.20;99.90
14934;DHT22;7560;51.364;12.384;2022-11-25T21:39:35;8.10;99.90
14934;DHT22;7560;51.364;12.384;2022-11-25T21:44:38;8.10;99.90
14934;DHT22;7560;51.364;12.384;2022-11-25T21:49:41;8.10;99.90
14934;DHT22;7560;51.364;12.384;2022-11-25T21:54:43;8.10;99.90
14934;DHT22;7560;51.364;12.384;2022-11-25T21:59:46;8.00;99.90
14934;DHT22;7560;51.364;12.384;2022-11-25T22:04:49;7.80;99.90
14934;DHT22;7560;51.364;12.384;2022-11-25T22:09:51;7.70;99.90
14934;DHT22;7560;51.364;12.384;2022-11-25T22:14:53;7.60;99.90
14934;DHT22;7560;51.364;12.384;2022-11-25T22:19:56;7.60;99.90
14934;DHT22;7560;51.364;12.384;2022-11-25T22:24:58;7.50;99.90
14934;DHT22;7560;51.364;12.384;2022-11-25T22:29:59;7.30;99.90
14934;DHT22;7560;51.364;12.384;2022-11-25T22:35:04;7.20;99.90
14934;DHT22;7560;51.364;12.384;2022-11-25T22:40:06;7.10;99.90
14934;DHT22;7560;51.364;12.384;2022-11-25T22:45:19;7.00;99.90
14934;DHT22;7560;51.364;12.384;2022-11-25T22:50:29;6.90;99.90
14934;DHT22;7560;51.364;12.384;2022-11-25T22:55:32;7.00;99.90
14934;DHT22;7560;51.364;12.384;2022-11-25T23:00:36;7.00;99.90
14934;DHT22;7560;51.364;12.384;2022-11-25T23:05:40;7.00;99.90
14934;DHT22;7560;51.364;12.384;2022-11-25T23:10:42;7.20;99.90
14934;DHT22;7560;51.364;12.384;2022-11-25T23:15:47;7.30;99.90
14934;DHT22;7560;51.364;12.384;2022-11-25T23:20:50;7.30;99.90
14934;DHT22;7560;51.364;12.384;2022-11-25T23:25:52;7.40;99.90
14934;DHT22;7560;51.364;12.384;2022-11-25T23:30:55;7.30;99.90
14934;DHT22;7560;51.364;12.384;2022-11-25T23:35:58;7.20;99.90
14934;DHT22;7560;51.364;12.384;2022-11-25T23:41:05;7.20;99.90
14934;DHT22;7560;51.364;12.384;2022-11-25T23:46:08;7.10;99.90
14934;DHT22;7560;51.364;12.384;2022-11-25T23:51:13;7.10;99.90
14934;DHT22;7560;51.364;12.384;2022-11-25T23:56:15;7.10;99.90
